sensor_id;sensor_type;location;lat;lon;timestamp;temperature;humidity
21666;DHT22;10994;45.486;9.190;2022-09-09T00:00:44;25.20;99.90
21666;DHT22;10994;45.486;9.190;2022-09-09T00:03:53;25.10;99.90
21666;DHT22;10994;45.486;9.190;2022-09-09T00:06:26;25.20;99.90
21666;DHT22;10994;45.486;9.190;2022-09-09T00:09:15;25.20;99.90
21666;DHT22;10994;45.486;9.190;2022-09-09T00:12:02;25.30;99.90
21666;DHT22;10994;45.486;9.190;2022-09-09T00:14:56;25.30;99.90
21666;DHT22;10994;45.486;9.190;2022-09-09T00:26:08;25.30;99.90
21666;DHT22;10994;45.486;9.190;2022-09-09T00:31:39;25.40;99.90
21666;DHT22;10994;45.486;9.190;2022-09-09T00:34:15;25.40;99.90
21666;DHT22;10994;45.486;9.190;2022-09-09T00:36:42;25.40;99.90
21666;DHT22;10994;45.486;9.190;2022-09-09T00:39:38;25.30;99.90
21666;DHT22;10994;45.486;9.190;2022-09-09T00:47:45;25.30;99.90
21666;DHT22;10994;45.486;9.190;2022-09-09T00:58:24;25.10;99.90
21666;DHT22;10994;45.486;9.190;2022-09-09T01:03:54;24.80;99.90
21666;DHT22;10994;45.486;9.190;2022-09-09T01:06:33;24.80;99.90
21666;DHT22;10994;45.486;9.190;2022-09-09T01:09:11;24.90;99.90
21666;DHT22;10994;45.486;9.190;2022-09-09T01:22:37;24.90;99.90
21666;DHT22;10994;45.486;9.190;2022-09-09T01:25:28;25.00;99.90
21666;DHT22;10994;45.486;9.190;2022-09-09T01:28:04;25.10;99.90
21666;DHT22;10994;45.486;9.190;2022-09-09T01:30:37;25.10;99.90
21666;DHT22;10994;45.486;9.190;2022-09-09T01:33:03;25.10;99.90
21666;DHT22;10994;45.486;9.190;2022-09-09T01:35:52;25.10;99.90
21666;DHT22;10994;45.486;9.190;2022-09-09T01:38:24;25.10;99.90
21666;DHT22;10994;45.486;9.190;2022-09-09T01:40:52;25.10;99.90
21666;DHT22;10994;45.486;9.190;2022-09-09T01:43:21;25.10;99.90
21666;DHT22;10994;45.486;9.190;2022-09-09T01:45:49;25.10;99.90
21666;DHT22;10994;45.486;9.190;2022-09-09T01:48:19;25.20;99.90
21666;DHT22;10994;45.486;9.190;2022-09-09T01:50:52;25.20;99.90
21666;DHT22;10994;45.486;9.190;2022-09-09T01:53:19;25.20;99.90
21666;DHT22;10994;45.486;9.190;2022-09-09T01:59:18;25.20;99.90
21666;DHT22;10994;45.486;9.190;2022-09-09T02:02:27;25.10;99.90
21666;DHT22;10994;45.486;9.190;2022-09-09T02:05:18;25.10;99.90
21666;DHT22;10994;45.486;9.190;2022-09-09T02:07:51;25.10;99.90
21666;DHT22;10994;45.486;9.190;2022-09-09T02:10:44;25.10;99.90
21666;DHT22;10994;45.486;9.190;2022-09-09T02:13:25;25.20;99.90
21666;DHT22;10994;45.486;9.190;2022-09-09T02:21:19;24.80;99.90
21666;DHT22;10994;45.486;9.190;2022-09-09T02:23:47;24.70;99.90
21666;DHT22;10994;45.486;9.190;2022-09-09T02:26:18;24.70;99.90
21666;DHT22;10994;45.486;9.190;2022-09-09T02:28:55;24.80;99.90
21666;DHT22;10994;45.486;9.190;2022-09-09T02:31:23;24.80;99.90
21666;DHT22;10994;45.486;9.190;2022-09-09T02:33:56;24.90;99.90
21666;DHT22;10994;45.486;9.190;2022-09-09T02:36:24;24.90;99.90
21666;DHT22;10994;45.486;9.190;2022-09-09T02:38:52;25.00;99.90
21666;DHT22;10994;45.486;9.190;2022-09-09T02:41:27;25.00;99.90
21666;DHT22;10994;45.486;9.190;2022-09-09T02:43:56;25.00;99.90
21666;DHT22;10994;45.486;9.190;2022-09-09T02:49:18;25.00;99.90
21666;DHT22;10994;45.486;9.190;2022-09-09T02:52:02;24.70;99.90
21666;DHT22;10994;45.486;9.190;2022-09-09T02:54:34;24.40;99.90
21666;DHT22;10994;45.486;9.190;2022-09-09T02:57:28;24.40;99.90
21666;DHT22;10994;45.486;9.190;2022-09-09T02:59:59;24.60;99.90
21666;DHT22;10994;45.486;9.190;2022-09-09T03:02:26;24.70;99.90
21666;DHT22;10994;45.486;9.190;2022-09-09T03:04:57;24.70;99.90
21666;DHT22;10994;45.486;9.190;2022-09-09T03:07:23;24.60;99.90
21666;DHT22;10994;45.486;9.190;2022-09-09T03:09:50;24.20;99.90
21666;DHT22;10994;45.486;9.190;2022-09-09T03:12:17;24.00;99.90
21666;DHT22;10994;45.486;9.190;2022-09-09T03:14:43;23.90;99.90
21666;DHT22;10994;45.486;9.190;2022-09-09T03:17:11;23.70;99.90
21666;DHT22;10994;45.486;9.190;2022-09-09T03:19:44;23.70;99.90
21666;DHT22;10994;45.486;9.190;2022-09-09T03:22:10;23.90;99.90
21666;DHT22;10994;45.486;9.190;2022-09-09T03:24:39;23.70;99.90
21666;DHT22;10994;45.486;9.190;2022-09-09T03:27:05;23.70;99.90
21666;DHT22;10994;45.486;9.190;2022-09-09T03:29:31;23.60;99.90
21666;DHT22;10994;45.486;9.190;2022-09-09T03:32:00;23.70;99.90
21666;DHT22;10994;45.486;9.190;2022-09-09T03:34:27;23.80;99.90
21666;DHT22;10994;45.486;9.190;2022-09-09T03:36:52;24.00;99.90
21666;DHT22;10994;45.486;9.190;2022-09-09T03:39:18;24.10;99.90
21666;DHT22;10994;45.486;9.190;2022-09-09T03:41:44;24.00;99.90
21666;DHT22;10994;45.486;9.190;2022-09-09T03:44:11;23.80;99.90
21666;DHT22;10994;45.486;9.190;2022-09-09T03:46:40;23.50;99.90
21666;DHT22;10994;45.486;9.190;2022-09-09T03:49:05;23.60;99.90
21666;DHT22;10994;45.486;9.190;2022-09-09T03:51:31;23.50;99.90
21666;DHT22;10994;45.486;9.190;2022-09-09T03:53:59;23.40;99.90
21666;DHT22;10994;45.486;9.190;2022-09-09T03:56:27;23.50;99.90
21666;DHT22;10994;45.486;9.190;2022-09-09T03:58:53;23.60;99.90
21666;DHT22;10994;45.486;9.190;2022-09-09T04:01:18;23.70;99.90
21666;DHT22;10994;45.486;9.190;2022-09-09T04:03:45;23.60;99.90
21666;DHT22;10994;45.486;9.190;2022-09-09T04:06:12;23.50;99.90
21666;DHT22;10994;45.486;9.190;2022-09-09T04:08:41;23.40;99.90
21666;DHT22;10994;45.486;9.190;2022-09-09T04:11:07;23.50;99.90
21666;DHT22;10994;45.486;9.190;2022-09-09T04:13:36;23.40;99.90
21666;DHT22;10994;45.486;9.190;2022-09-09T04:16:09;23.30;99.90
21666;DHT22;10994;45.486;9.190;2022-09-09T04:18:36;23.30;99.90
21666;DHT22;10994;45.486;9.190;2022-09-09T04:21:03;23.30;99.90
21666;DHT22;10994;45.486;9.190;2022-09-09T04:23:30;23.30;99.90
21666;DHT22;10994;45.486;9.190;2022-09-09T04:25:58;23.10;99.90
21666;DHT22;10994;45.486;9.190;2022-09-09T04:28:28;23.10;99.90
21666;DHT22;10994;45.486;9.190;2022-09-09T04:30:54;23.10;99.90
21666;DHT22;10994;45.486;9.190;2022-09-09T04:33:20;23.10;99.90
21666;DHT22;10994;45.486;9.190;2022-09-09T04:35:49;23.00;99.90
21666;DHT22;10994;45.486;9.190;2022-09-09T04:38:17;23.00;99.90
21666;DHT22;10994;45.486;9.190;2022-09-09T04:40:47;23.20;99.90
21666;DHT22;10994;45.486;9.190;2022-09-09T04:43:13;23.20;99.90
21666;DHT22;10994;45.486;9.190;2022-09-09T04:45:47;23.00;99.90
21666;DHT22;10994;45.486;9.190;2022-09-09T04:48:13;22.90;99.90
21666;DHT22;10994;45.486;9.190;2022-09-09T04:50:39;23.00;99.90
21666;DHT22;10994;45.486;9.190;2022-09-09T04:53:06;23.00;99.90
21666;DHT22;10994;45.486;9.190;2022-09-09T04:55:33;22.90;99.90
21666;DHT22;10994;45.486;9.190;2022-09-09T04:58:07;22.90;99.90
21666;DHT22;10994;45.486;9.190;2022-09-09T05:00:34;22.80;99.90
21666;DHT22;10994;45.486;9.190;2022-09-09T05:03:07;22.90;99.90
21666;DHT22;10994;45.486;9.190;2022-09-09T05:05:38;23.10;99.90
21666;DHT22;10994;45.486;9.190;2022-09-09T05:08:06;23.00;99.90
21666;DHT22;10994;45.486;9.190;2022-09-09T05:10:33;23.00;99.90
21666;DHT22;10994;45.486;9.190;2022-09-09T05:12:59;22.90;99.90
21666;DHT22;10994;45.486;9.190;2022-09-09T05:15:28;23.00;99.90
21666;DHT22;10994;45.486;9.190;2022-09-09T05:18:00;23.10;99.90
21666;DHT22;10994;45.486;9.190;2022-09-09T05:20:28;23.10;99.90
21666;DHT22;10994;45.486;9.190;2022-09-09T05:22:55;23.20;99.90
21666;DHT22;10994;45.486;9.190;2022-09-09T05:25:23;23.10;99.90
21666;DHT22;10994;45.486;9.190;2022-09-09T05:27:51;23.20;99.90
21666;DHT22;10994;45.486;9.190;2022-09-09T05:30:19;23.20;99.90
21666;DHT22;10994;45.486;9.190;2022-09-09T05:32:45;23.30;99.90
21666;DHT22;10994;45.486;9.190;2022-09-09T05:35:12;23.30;99.90
21666;DHT22;10994;45.486;9.190;2022-09-09T05:37:38;23.30;99.90
21666;DHT22;10994;45.486;9.190;2022-09-09T05:40:05;23.20;99.90
21666;DHT22;10994;45.486;9.190;2022-09-09T05:42:32;23.20;99.90
21666;DHT22;10994;45.486;9.190;2022-09-09T05:44:58;23.30;99.90
21666;DHT22;10994;45.486;9.190;2022-09-09T05:47:24;23.40;99.90
21666;DHT22;10994;45.486;9.190;2022-09-09T05:49:54;23.50;99.90
21666;DHT22;10994;45.486;9.190;2022-09-09T05:52:21;23.50;99.90
21666;DHT22;10994;45.486;9.190;2022-09-09T05:54:46;23.50;99.90
21666;DHT22;10994;45.486;9.190;2022-09-09T05:57:12;23.50;99.90
21666;DHT22;10994;45.486;9.190;2022-09-09T05:59:38;23.50;99.90
21666;DHT22;10994;45.486;9.190;2022-09-09T06:02:04;23.60;99.90
21666;DHT22;10994;45.486;9.190;2022-09-09T06:04:34;23.50;99.90
21666;DHT22;10994;45.486;9.190;2022-09-09T06:07:01;23.60;99.90
21666;DHT22;10994;45.486;9.190;2022-09-09T06:09:27;23.60;99.90
21666;DHT22;10994;45.486;9.190;2022-09-09T06:11:55;23.30;99.90
21666;DHT22;10994;45.486;9.190;2022-09-09T06:14:22;23.20;99.90
21666;DHT22;10994;45.486;9.190;2022-09-09T06:16:49;23.00;99.90
21666;DHT22;10994;45.486;9.190;2022-09-09T06:19:21;23.10;99.90
21666;DHT22;10994;45.486;9.190;2022-09-09T06:21:47;23.10;99.90
21666;DHT22;10994;45.486;9.190;2022-09-09T06:24:13;23.00;99.90
21666;DHT22;10994;45.486;9.190;2022-09-09T06:26:43;23.10;99.90
21666;DHT22;10994;45.486;9.190;2022-09-09T06:29:15;23.30;99.90
21666;DHT22;10994;45.486;9.190;2022-09-09T06:31:42;23.40;99.90
21666;DHT22;10994;45.486;9.190;2022-09-09T06:34:34;23.30;99.90
21666;DHT22;10994;45.486;9.190;2022-09-09T06:37:02;23.20;99.90
21666;DHT22;10994;45.486;9.190;2022-09-09T06:39:34;23.30;99.90
21666;DHT22;10994;45.486;9.190;2022-09-09T06:42:00;23.40;99.90
21666;DHT22;10994;45.486;9.190;2022-09-09T06:44:46;23.40;99.90
21666;DHT22;10994;45.486;9.190;2022-09-09T06:47:18;23.30;99.90
21666;DHT22;10994;45.486;9.190;2022-09-09T06:49:45;23.40;99.90
21666;DHT22;10994;45.486;9.190;2022-09-09T06:52:10;23.20;99.90
21666;DHT22;10994;45.486;9.190;2022-09-09T06:54:37;23.30;99.90
21666;DHT22;10994;45.486;9.190;2022-09-09T06:57:04;23.40;99.90
21666;DHT22;10994;45.486;9.190;2022-09-09T06:59:32;23.50;99.90
21666;DHT22;10994;45.486;9.190;2022-09-09T07:01:59;23.60;99.90
21666;DHT22;10994;45.486;9.190;2022-09-09T07:04:25;23.70;99.90
21666;DHT22;10994;45.486;9.190;2022-09-09T07:06:51;23.50;99.90
21666;DHT22;10994;45.486;9.190;2022-09-09T07:09:21;23.30;99.90
21666;DHT22;10994;45.486;9.190;2022-09-09T07:11:51;23.30;99.90
21666;DHT22;10994;45.486;9.190;2022-09-09T07:14:21;23.30;99.90
21666;DHT22;10994;45.486;9.190;2022-09-09T07:16:53;23.40;99.90
21666;DHT22;10994;45.486;9.190;2022-09-09T07:19:18;23.50;99.90
21666;DHT22;10994;45.486;9.190;2022-09-09T07:21:47;23.70;99.90
21666;DHT22;10994;45.486;9.190;2022-09-09T07:24:17;23.80;99.90
21666;DHT22;10994;45.486;9.190;2022-09-09T07:26:43;23.70;99.90
21666;DHT22;10994;45.486;9.190;2022-09-09T07:29:10;23.70;99.90
21666;DHT22;10994;45.486;9.190;2022-09-09T07:31:39;23.90;99.90
21666;DHT22;10994;45.486;9.190;2022-09-09T07:34:09;23.90;99.90
21666;DHT22;10994;45.486;9.190;2022-09-09T07:36:39;24.00;99.90
21666;DHT22;10994;45.486;9.190;2022-09-09T07:39:09;24.10;99.90
21666;DHT22;10994;45.486;9.190;2022-09-09T07:41:41;24.20;99.90
21666;DHT22;10994;45.486;9.190;2022-09-09T07:44:19;24.30;99.90
21666;DHT22;10994;45.486;9.190;2022-09-09T07:46:49;24.60;99.90
21666;DHT22;10994;45.486;9.190;2022-09-09T07:49:19;24.80;99.90
21666;DHT22;10994;45.486;9.190;2022-09-09T07:51:46;24.70;99.90
21666;DHT22;10994;45.486;9.190;2022-09-09T07:54:15;24.70;99.90
21666;DHT22;10994;45.486;9.190;2022-09-09T07:56:43;24.60;99.90
21666;DHT22;10994;45.486;9.190;2022-09-09T07:59:10;24.70;99.90
21666;DHT22;10994;45.486;9.190;2022-09-09T08:01:42;24.60;99.90
21666;DHT22;10994;45.486;9.190;2022-09-09T08:04:16;24.60;99.90
21666;DHT22;10994;45.486;9.190;2022-09-09T08:06:49;24.60;99.90
21666;DHT22;10994;45.486;9.190;2022-09-09T08:09:17;24.50;99.90
21666;DHT22;10994;45.486;9.190;2022-09-09T08:11:46;24.50;99.90
21666;DHT22;10994;45.486;9.190;2022-09-09T08:14:12;24.60;99.90
21666;DHT22;10994;45.486;9.190;2022-09-09T08:16:42;24.60;99.90
21666;DHT22;10994;45.486;9.190;2022-09-09T08:19:10;24.60;99.90
21666;DHT22;10994;45.486;9.190;2022-09-09T08:21:37;24.50;99.90
21666;DHT22;10994;45.486;9.190;2022-09-09T08:24:05;24.60;99.90
21666;DHT22;10994;45.486;9.190;2022-09-09T08:26:46;24.60;99.90
21666;DHT22;10994;45.486;9.190;2022-09-09T08:29:13;24.40;99.90
21666;DHT22;10994;45.486;9.190;2022-09-09T08:31:43;24.40;99.90
21666;DHT22;10994;45.486;9.190;2022-09-09T08:34:10;24.40;99.90
21666;DHT22;10994;45.486;9.190;2022-09-09T08:36:39;24.40;99.90
21666;DHT22;10994;45.486;9.190;2022-09-09T08:39:06;24.30;99.90
21666;DHT22;10994;45.486;9.190;2022-09-09T08:44:50;24.50;99.90
21666;DHT22;10994;45.486;9.190;2022-09-09T08:50:35;24.50;99.90
21666;DHT22;10994;45.486;9.190;2022-09-09T08:53:17;24.70;99.90
21666;DHT22;10994;45.486;9.190;2022-09-09T08:58:32;24.70;99.90
21666;DHT22;10994;45.486;9.190;2022-09-09T09:01:12;24.70;99.90
21666;DHT22;10994;45.486;9.190;2022-09-09T09:03:57;24.60;99.90
21666;DHT22;10994;45.486;9.190;2022-09-09T09:09:11;24.70;99.90
21666;DHT22;10994;45.486;9.190;2022-09-09T09:11:43;24.70;99.90
21666;DHT22;10994;45.486;9.190;2022-09-09T09:14:21;24.70;99.90
21666;DHT22;10994;45.486;9.190;2022-09-09T09:16:53;24.60;99.90
21666;DHT22;10994;45.486;9.190;2022-09-09T09:19:22;24.70;99.90
21666;DHT22;10994;45.486;9.190;2022-09-09T09:21:59;24.60;99.90
21666;DHT22;10994;45.486;9.190;2022-09-09T09:27:00;24.60;99.90
21666;DHT22;10994;45.486;9.190;2022-09-09T09:29:33;24.50;99.90
21666;DHT22;10994;45.486;9.190;2022-09-09T09:32:02;24.70;99.90
21666;DHT22;10994;45.486;9.190;2022-09-09T09:34:30;24.60;99.90
21666;DHT22;10994;45.486;9.190;2022-09-09T09:36:57;24.80;99.90
21666;DHT22;10994;45.486;9.190;2022-09-09T09:39:31;24.90;99.90
21666;DHT22;10994;45.486;9.190;2022-09-09T09:42:28;24.90;99.90
21666;DHT22;10994;45.486;9.190;2022-09-09T09:44:56;24.90;99.90
21666;DHT22;10994;45.486;9.190;2022-09-09T09:47:32;25.20;99.90
21666;DHT22;10994;45.486;9.190;2022-09-09T09:50:18;25.30;99.90
21666;DHT22;10994;45.486;9.190;2022-09-09T09:52:57;25.10;99.90
21666;DHT22;10994;45.486;9.190;2022-09-09T09:55:25;25.20;99.90
21666;DHT22;10994;45.486;9.190;2022-09-09T09:57:52;25.20;99.90
21666;DHT22;10994;45.486;9.190;2022-09-09T10:00:21;25.10;99.90
21666;DHT22;10994;45.486;9.190;2022-09-09T10:02:55;24.90;99.90
21666;DHT22;10994;45.486;9.190;2022-09-09T10:05:29;24.90;99.90
21666;DHT22;10994;45.486;9.190;2022-09-09T10:08:10;24.80;99.90
21666;DHT22;10994;45.486;9.190;2022-09-09T10:13:14;25.00;99.90
21666;DHT22;10994;45.486;9.190;2022-09-09T10:18:59;24.90;99.90
21666;DHT22;10994;45.486;9.190;2022-09-09T10:26:58;25.10;99.90
21666;DHT22;10994;45.486;9.190;2022-09-09T10:35:02;25.30;99.90
21666;DHT22;10994;45.486;9.190;2022-09-09T10:40:59;25.10;99.90
21666;DHT22;10994;45.486;9.190;2022-09-09T10:43:00;25.10;99.90
21666;DHT22;10994;45.486;9.190;2022-09-09T10:45:40;25.00;99.90
21666;DHT22;10994;45.486;9.190;2022-09-09T10:48:23;24.90;99.90
21666;DHT22;10994;45.486;9.190;2022-09-09T10:51:17;25.10;99.90
21666;DHT22;10994;45.486;9.190;2022-09-09T10:53:58;25.10;99.90
21666;DHT22;10994;45.486;9.190;2022-09-09T10:56:26;25.00;99.90
21666;DHT22;10994;45.486;9.190;2022-09-09T10:58:59;25.10;99.90
21666;DHT22;10994;45.486;9.190;2022-09-09T11:04:01;25.10;99.90
21666;DHT22;10994;45.486;9.190;2022-09-09T11:06:34;25.10;99.90
21666;DHT22;10994;45.486;9.190;2022-09-09T11:09:03;25.30;99.90
21666;DHT22;10994;45.486;9.190;2022-09-09T11:11:36;25.30;99.90
21666;DHT22;10994;45.486;9.190;2022-09-09T11:16:41;25.50;99.90
21666;DHT22;10994;45.486;9.190;2022-09-09T11:21:46;25.50;99.90
21666;DHT22;10994;45.486;9.190;2022-09-09T11:24:26;25.50;99.90
21666;DHT22;10994;45.486;9.190;2022-09-09T11:32:33;25.70;99.90
21666;DHT22;10994;45.486;9.190;2022-09-09T11:35:27;25.90;99.90
21666;DHT22;10994;45.486;9.190;2022-09-09T11:40:44;25.90;99.90
21666;DHT22;10994;45.486;9.190;2022-09-09T11:43:11;25.90;99.90
21666;DHT22;10994;45.486;9.190;2022-09-09T11:45:40;25.80;99.90
21666;DHT22;10994;45.486;9.190;2022-09-09T11:48:32;25.80;99.90
21666;DHT22;10994;45.486;9.190;2022-09-09T11:51:07;25.80;99.90
21666;DHT22;10994;45.486;9.190;2022-09-09T11:53:35;25.90;99.90
21666;DHT22;10994;45.486;9.190;2022-09-09T11:56:10;26.10;99.90
21666;DHT22;10994;45.486;9.190;2022-09-09T11:58:53;26.20;99.90
21666;DHT22;10994;45.486;9.190;2022-09-09T12:01:41;26.10;99.90
21666;DHT22;10994;45.486;9.190;2022-09-09T12:04:21;26.10;99.90
21666;DHT22;10994;45.486;9.190;2022-09-09T12:07:00;26.40;99.90
21666;DHT22;10994;45.486;9.190;2022-09-09T12:17:23;26.90;99.90
21666;DHT22;10994;45.486;9.190;2022-09-09T12:26:32;28.10;99.90
21666;DHT22;10994;45.486;9.190;2022-09-09T12:32:00;28.20;99.90
21666;DHT22;10994;45.486;9.190;2022-09-09T12:39:58;28.80;99.90
21666;DHT22;10994;45.486;9.190;2022-09-09T12:42:26;29.20;99.90
21666;DHT22;10994;45.486;9.190;2022-09-09T12:44:59;29.60;99.90
21666;DHT22;10994;45.486;9.190;2022-09-09T12:47:40;29.90;99.90
21666;DHT22;10994;45.486;9.190;2022-09-09T12:50:30;30.20;99.90
21666;DHT22;10994;45.486;9.190;2022-09-09T12:53:01;30.30;99.90
21666;DHT22;10994;45.486;9.190;2022-09-09T12:55:36;30.20;99.90
21666;DHT22;10994;45.486;9.190;2022-09-09T12:58:04;30.30;99.90
21666;DHT22;10994;45.486;9.190;2022-09-09T13:00:33;30.10;99.90
21666;DHT22;10994;45.486;9.190;2022-09-09T13:03:01;29.80;99.90
21666;DHT22;10994;45.486;9.190;2022-09-09T13:05:38;29.70;99.90
21666;DHT22;10994;45.486;9.190;2022-09-09T13:08:10;29.30;99.90
21666;DHT22;10994;45.486;9.190;2022-09-09T13:10:40;29.10;99.90
21666;DHT22;10994;45.486;9.190;2022-09-09T13:13:29;29.20;99.90
21666;DHT22;10994;45.486;9.190;2022-09-09T13:15:57;29.20;99.90
21666;DHT22;10994;45.486;9.190;2022-09-09T13:18:33;29.10;99.90
21666;DHT22;10994;45.486;9.190;2022-09-09T13:20:59;29.00;99.90
21666;DHT22;10994;45.486;9.190;2022-09-09T13:23:30;28.90;99.90
21666;DHT22;10994;45.486;9.190;2022-09-09T13:25:59;28.90;99.90
21666;DHT22;10994;45.486;9.190;2022-09-09T13:28:28;28.70;99.90
21666;DHT22;10994;45.486;9.190;2022-09-09T13:30:58;28.50;99.90
21666;DHT22;10994;45.486;9.190;2022-09-09T13:33:36;28.20;99.90
21666;DHT22;10994;45.486;9.190;2022-09-09T13:36:08;28.00;99.90
21666;DHT22;10994;45.486;9.190;2022-09-09T13:38:58;28.00;99.90
21666;DHT22;10994;45.486;9.190;2022-09-09T13:43:56;28.00;99.90
21666;DHT22;10994;45.486;9.190;2022-09-09T13:46:31;27.90;99.90
21666;DHT22;10994;45.486;9.190;2022-09-09T13:48:58;28.00;99.90
21666;DHT22;10994;45.486;9.190;2022-09-09T13:51:34;27.90;99.90
21666;DHT22;10994;45.486;9.190;2022-09-09T13:54:01;27.90;99.90
21666;DHT22;10994;45.486;9.190;2022-09-09T13:56:26;28.00;99.90
21666;DHT22;10994;45.486;9.190;2022-09-09T13:58:52;28.00;99.90
21666;DHT22;10994;45.486;9.190;2022-09-09T14:01:18;28.10;99.90
21666;DHT22;10994;45.486;9.190;2022-09-09T14:03:43;28.40;99.90
21666;DHT22;10994;45.486;9.190;2022-09-09T14:06:10;28.60;99.90
21666;DHT22;10994;45.486;9.190;2022-09-09T14:08:36;28.70;99.90
21666;DHT22;10994;45.486;9.190;2022-09-09T14:11:04;28.70;99.90
21666;DHT22;10994;45.486;9.190;2022-09-09T14:13:30;28.80;99.90
21666;DHT22;10994;45.486;9.190;2022-09-09T14:15:55;28.70;99.90
21666;DHT22;10994;45.486;9.190;2022-09-09T14:18:21;28.80;99.90
21666;DHT22;10994;45.486;9.190;2022-09-09T14:20:48;29.10;99.90
21666;DHT22;10994;45.486;9.190;2022-09-09T14:23:15;29.30;99.90
21666;DHT22;10994;45.486;9.190;2022-09-09T14:25:42;29.40;99.90
21666;DHT22;10994;45.486;9.190;2022-09-09T14:28:12;29.40;99.90
21666;DHT22;10994;45.486;9.190;2022-09-09T14:30:40;29.40;99.90
21666;DHT22;10994;45.486;9.190;2022-09-09T14:33:07;29.40;99.90
21666;DHT22;10994;45.486;9.190;2022-09-09T14:35:33;29.50;99.90
21666;DHT22;10994;45.486;9.190;2022-09-09T14:37:59;29.80;99.90
21666;DHT22;10994;45.486;9.190;2022-09-09T14:40:26;30.00;99.90
21666;DHT22;10994;45.486;9.190;2022-09-09T14:42:53;29.80;99.90
21666;DHT22;10994;45.486;9.190;2022-09-09T14:45:18;29.50;99.90
21666;DHT22;10994;45.486;9.190;2022-09-09T14:47:44;29.70;99.90
21666;DHT22;10994;45.486;9.190;2022-09-09T14:50:10;29.80;99.90
21666;DHT22;10994;45.486;9.190;2022-09-09T14:52:38;29.70;99.90
21666;DHT22;10994;45.486;9.190;2022-09-09T14:55:04;29.40;99.90
21666;DHT22;10994;45.486;9.190;2022-09-09T14:57:30;29.50;99.90
21666;DHT22;10994;45.486;9.190;2022-09-09T14:59:56;29.70;99.90
21666;DHT22;10994;45.486;9.190;2022-09-09T15:02:22;29.90;99.90
21666;DHT22;10994;45.486;9.190;2022-09-09T15:04:48;29.90;99.90
21666;DHT22;10994;45.486;9.190;2022-09-09T15:07:15;29.90;99.90
21666;DHT22;10994;45.486;9.190;2022-09-09T15:09:42;29.80;99.90
21666;DHT22;10994;45.486;9.190;2022-09-09T15:12:08;29.70;99.90
21666;DHT22;10994;45.486;9.190;2022-09-09T15:14:34;29.80;99.90
21666;DHT22;10994;45.486;9.190;2022-09-09T15:17:00;29.60;99.90
21666;DHT22;10994;45.486;9.190;2022-09-09T15:19:26;29.50;99.90
21666;DHT22;10994;45.486;9.190;2022-09-09T15:21:52;29.50;99.90
21666;DHT22;10994;45.486;9.190;2022-09-09T15:24:18;29.50;99.90
21666;DHT22;10994;45.486;9.190;2022-09-09T15:26:43;29.50;99.90
21666;DHT22;10994;45.486;9.190;2022-09-09T15:29:09;29.50;99.90
21666;DHT22;10994;45.486;9.190;2022-09-09T15:31:35;29.60;99.90
21666;DHT22;10994;45.486;9.190;2022-09-09T15:34:03;29.40;99.90
21666;DHT22;10994;45.486;9.190;2022-09-09T15:36:31;29.30;99.90
21666;DHT22;10994;45.486;9.190;2022-09-09T15:39:01;29.10;99.90
21666;DHT22;10994;45.486;9.190;2022-09-09T15:41:28;29.10;99.90
21666;DHT22;10994;45.486;9.190;2022-09-09T15:43:55;29.20;99.90
21666;DHT22;10994;45.486;9.190;2022-09-09T15:46:30;29.10;99.90
21666;DHT22;10994;45.486;9.190;2022-09-09T15:51:32;29.20;99.90
21666;DHT22;10994;45.486;9.190;2022-09-09T15:53:59;29.30;99.90
21666;DHT22;10994;45.486;9.190;2022-09-09T15:56:26;29.40;99.90
21666;DHT22;10994;45.486;9.190;2022-09-09T15:58:53;29.40;99.90
21666;DHT22;10994;45.486;9.190;2022-09-09T16:01:19;29.30;99.90
21666;DHT22;10994;45.486;9.190;2022-09-09T16:03:46;29.60;99.90
21666;DHT22;10994;45.486;9.190;2022-09-09T16:06:17;29.70;99.90
21666;DHT22;10994;45.486;9.190;2022-09-09T16:08:45;29.70;99.90
21666;DHT22;10994;45.486;9.190;2022-09-09T16:11:17;29.50;99.90
21666;DHT22;10994;45.486;9.190;2022-09-09T16:13:46;29.40;99.90
21666;DHT22;10994;45.486;9.190;2022-09-09T16:16:14;29.40;99.90
21666;DHT22;10994;45.486;9.190;2022-09-09T16:18:45;29.40;99.90
21666;DHT22;10994;45.486;9.190;2022-09-09T16:21:15;29.30;99.90
21666;DHT22;10994;45.486;9.190;2022-09-09T16:23:41;29.20;99.90
21666;DHT22;10994;45.486;9.190;2022-09-09T16:26:10;29.10;99.90
21666;DHT22;10994;45.486;9.190;2022-09-09T16:28:36;29.00;99.90
21666;DHT22;10994;45.486;9.190;2022-09-09T16:31:24;28.90;99.90
21666;DHT22;10994;45.486;9.190;2022-09-09T16:33:50;28.80;99.90
21666;DHT22;10994;45.486;9.190;2022-09-09T16:36:23;28.60;99.90
21666;DHT22;10994;45.486;9.190;2022-09-09T16:38:54;28.60;99.90
21666;DHT22;10994;45.486;9.190;2022-09-09T16:41:21;28.60;99.90
21666;DHT22;10994;45.486;9.190;2022-09-09T16:43:47;28.50;99.90
21666;DHT22;10994;45.486;9.190;2022-09-09T16:46:18;28.60;99.90
21666;DHT22;10994;45.486;9.190;2022-09-09T16:48:46;28.60;99.90
21666;DHT22;10994;45.486;9.190;2022-09-09T16:51:19;28.50;99.90
21666;DHT22;10994;45.486;9.190;2022-09-09T16:53:45;28.50;99.90
21666;DHT22;10994;45.486;9.190;2022-09-09T16:56:16;28.40;99.90
21666;DHT22;10994;45.486;9.190;2022-09-09T16:58:43;28.30;99.90
21666;DHT22;10994;45.486;9.190;2022-09-09T17:01:10;28.30;99.90
21666;DHT22;10994;45.486;9.190;2022-09-09T17:03:39;28.30;99.90
21666;DHT22;10994;45.486;9.190;2022-09-09T17:06:09;28.30;99.90
21666;DHT22;10994;45.486;9.190;2022-09-09T17:08:35;28.10;99.90
21666;DHT22;10994;45.486;9.190;2022-09-09T17:11:01;28.00;99.90
21666;DHT22;10994;45.486;9.190;2022-09-09T17:13:26;28.00;99.90
21666;DHT22;10994;45.486;9.190;2022-09-09T17:15:52;28.00;99.90
21666;DHT22;10994;45.486;9.190;2022-09-09T17:18:25;28.10;99.90
21666;DHT22;10994;45.486;9.190;2022-09-09T17:20:54;28.10;99.90
21666;DHT22;10994;45.486;9.190;2022-09-09T17:23:19;27.90;99.90
21666;DHT22;10994;45.486;9.190;2022-09-09T17:25:45;27.80;99.90
21666;DHT22;10994;45.486;9.190;2022-09-09T17:28:22;27.80;99.90
21666;DHT22;10994;45.486;9.190;2022-09-09T17:30:52;27.90;99.90
21666;DHT22;10994;45.486;9.190;2022-09-09T17:33:18;28.00;99.90
21666;DHT22;10994;45.486;9.190;2022-09-09T17:35:46;27.90;99.90
21666;DHT22;10994;45.486;9.190;2022-09-09T17:38:14;27.80;99.90
21666;DHT22;10994;45.486;9.190;2022-09-09T17:40:40;27.70;99.90
21666;DHT22;10994;45.486;9.190;2022-09-09T17:43:06;27.70;99.90
21666;DHT22;10994;45.486;9.190;2022-09-09T17:45:31;27.70;99.90
21666;DHT22;10994;45.486;9.190;2022-09-09T17:47:57;27.60;99.90
21666;DHT22;10994;45.486;9.190;2022-09-09T17:50:23;27.60;99.90
21666;DHT22;10994;45.486;9.190;2022-09-09T17:52:51;27.60;99.90
21666;DHT22;10994;45.486;9.190;2022-09-09T17:55:17;27.60;99.90
21666;DHT22;10994;45.486;9.190;2022-09-09T17:57:42;27.60;99.90
21666;DHT22;10994;45.486;9.190;2022-09-09T18:00:08;27.60;99.90